createdAt,value
2023-05-07T00:02:19.326Z,9.71
2023-05-07T00:04:46.362Z,9.71
2023-05-07T00:07:12.904Z,9.67
2023-05-07T00:09:39.355Z,9.67
2023-05-07T00:12:06.024Z,9.66
2023-05-07T00:14:32.567Z,9.64
2023-05-07T00:16:59.271Z,9.63
2023-05-07T00:19:25.855Z,9.60
2023-05-07T00:21:54.470Z,9.60
2023-05-07T00:24:20.956Z,9.59
2023-05-07T00:26:47.437Z,9.59
2023-05-07T00:29:13.906Z,9.59
2023-05-07T00:31:40.505Z,9.62
2023-05-07T00:34:07.191Z,9.62
2023-05-07T00:36:33.640Z,9.63
2023-05-07T00:39:01.182Z,9.64
2023-05-07T00:41:27.713Z,9.65
2023-05-07T00:43:54.279Z,9.67
2023-05-07T00:46:21.879Z,9.69
2023-05-07T00:48:48.374Z,9.70
2023-05-07T00:51:14.865Z,9.70
2023-05-07T00:53:41.387Z,9.68
2023-05-07T00:56:08.147Z,9.67
2023-05-07T00:58:34.677Z,9.63
2023-05-07T01:01:01.258Z,9.62
2023-05-07T01:03:27.817Z,9.66
2023-05-07T01:05:54.501Z,9.68
2023-05-07T01:08:21.614Z,9.70
2023-05-07T01:10:48.078Z,9.71
2023-05-07T01:13:14.652Z,9.72
2023-05-07T01:15:43.937Z,9.75
2023-05-07T01:18:10.430Z,9.74
2023-05-07T01:20:38.041Z,9.77
2023-05-07T01:23:04.578Z,9.77
2023-05-07T01:25:31.945Z,9.75
2023-05-07T01:28:00.379Z,9.75
2023-05-07T01:30:26.843Z,9.76
2023-05-07T01:32:57.937Z,9.79
2023-05-07T01:35:27.994Z,9.78
2023-05-07T01:37:54.443Z,9.77
2023-05-07T01:40:20.963Z,9.75
2023-05-07T01:42:47.749Z,9.74
2023-05-07T01:45:14.201Z,9.72
2023-05-07T01:47:40.757Z,9.71
2023-05-07T01:50:09.663Z,9.64
2023-05-07T01:52:38.410Z,9.65
2023-05-07T01:55:05.823Z,9.62
2023-05-07T01:57:32.369Z,9.57
2023-05-07T01:59:58.877Z,9.54
2023-05-07T02:02:25.542Z,9.49
2023-05-07T02:04:52.082Z,9.50
2023-05-07T02:07:18.929Z,9.51
2023-05-07T02:09:45.500Z,9.49
2023-05-07T02:12:11.970Z,9.50
2023-05-07T02:14:38.421Z,9.52
2023-05-07T02:17:04.911Z,9.51
2023-05-07T02:19:31.363Z,9.43
2023-05-07T02:21:57.865Z,9.35
2023-05-07T02:24:24.341Z,9.36
2023-05-07T02:26:50.806Z,9.35
2023-05-07T02:29:17.315Z,9.30
2023-05-07T02:31:43.826Z,9.26
2023-05-07T02:34:10.295Z,9.26
2023-05-07T02:36:36.781Z,9.28
2023-05-07T02:39:03.679Z,9.23
2023-05-07T02:41:30.234Z,9.19
2023-05-07T02:43:56.706Z,9.16
2023-05-07T02:46:23.297Z,9.14
2023-05-07T02:48:49.934Z,9.17
2023-05-07T02:51:21.846Z,9.19
2023-05-07T02:53:49.401Z,9.18
2023-05-07T02:56:15.853Z,9.14
2023-05-07T02:58:43.094Z,9.15
2023-05-07T03:01:09.910Z,9.10
2023-05-07T03:03:36.574Z,9.09
2023-05-07T03:06:03.141Z,9.08
2023-05-07T03:08:29.624Z,9.10
2023-05-07T03:10:56.182Z,9.06
2023-05-07T03:13:22.752Z,9.05
2023-05-07T03:15:49.283Z,9.04
2023-05-07T03:18:15.877Z,9.03
2023-05-07T03:20:42.519Z,9.00
2023-05-07T03:23:09.020Z,9.01
2023-05-07T03:25:35.871Z,9.02
2023-05-07T03:28:02.387Z,9.04
2023-05-07T03:30:28.919Z,9.07
2023-05-07T03:32:55.410Z,9.09
2023-05-07T03:35:21.938Z,9.07
2023-05-07T03:37:48.403Z,9.05
2023-05-07T03:40:15.170Z,9.05
2023-05-07T03:42:41.746Z,9.07
2023-05-07T03:45:09.054Z,9.05
2023-05-07T03:47:35.885Z,9.08
2023-05-07T03:50:02.512Z,9.12
2023-05-07T03:52:29.035Z,9.16
2023-05-07T03:54:55.662Z,9.13
2023-05-07T03:57:22.118Z,9.16
2023-05-07T03:59:48.626Z,9.19
2023-05-07T04:02:15.159Z,9.22
2023-05-07T04:04:41.648Z,9.25
2023-05-07T04:07:08.405Z,9.25
2023-05-07T04:09:34.911Z,9.29
2023-05-07T04:12:02.255Z,9.33
2023-05-07T04:14:28.790Z,9.36
2023-05-07T04:16:55.628Z,9.39
2023-05-07T04:19:22.095Z,9.45
2023-05-07T04:21:48.572Z,9.46
2023-05-07T04:24:15.024Z,9.47
2023-05-07T04:26:41.674Z,9.51
2023-05-07T04:29:08.150Z,9.51
2023-05-07T04:31:34.711Z,9.56
2023-05-07T04:34:01.826Z,9.59
2023-05-07T04:36:28.759Z,9.64
2023-05-07T04:38:55.469Z,9.65
2023-05-07T04:41:22.113Z,9.62
2023-05-07T04:43:48.686Z,9.60
2023-05-07T04:46:15.214Z,9.61
2023-05-07T04:48:41.713Z,9.63
2023-05-07T04:51:08.400Z,9.70
2023-05-07T04:53:34.908Z,9.72
2023-05-07T04:56:01.375Z,9.76
2023-05-07T04:58:28.285Z,9.81
2023-05-07T05:00:54.727Z,9.89
2023-05-07T05:03:21.347Z,10.05
2023-05-07T05:05:49.716Z,10.26
2023-05-07T05:08:16.356Z,10.55
2023-05-07T05:10:44.270Z,10.77
2023-05-07T05:13:13.571Z,11.03
2023-05-07T05:15:40.189Z,11.30
2023-05-07T05:18:06.721Z,11.59
2023-05-07T05:20:33.295Z,11.79
2023-05-07T05:22:59.839Z,12.07
2023-05-07T05:25:26.322Z,12.30
2023-05-07T05:27:52.767Z,12.55
2023-05-07T05:30:21.160Z,12.77
2023-05-07T05:32:47.847Z,12.86
2023-05-07T05:35:14.807Z,12.81
2023-05-07T05:37:41.470Z,12.88
2023-05-07T05:40:08.572Z,12.92
2023-05-07T05:42:35.211Z,12.91
2023-05-07T05:45:01.677Z,12.93
2023-05-07T05:47:28.183Z,12.93
2023-05-07T05:49:54.701Z,13.03
2023-05-07T05:52:21.322Z,13.11
2023-05-07T05:54:47.778Z,13.21
2023-05-07T05:57:14.413Z,13.28
2023-05-07T05:59:40.907Z,13.33
2023-05-07T06:02:07.801Z,13.36
2023-05-07T06:04:34.285Z,13.24
2023-05-07T06:07:00.827Z,13.05
2023-05-07T06:09:27.290Z,13.04
2023-05-07T06:11:53.766Z,13.17
2023-05-07T06:14:20.227Z,13.35
2023-05-07T06:16:46.780Z,13.45
2023-05-07T06:19:13.330Z,13.61
2023-05-07T06:21:40.292Z,13.76
2023-05-07T06:24:07.156Z,13.85
2023-05-07T06:26:33.611Z,13.87
2023-05-07T06:29:00.157Z,13.96
2023-05-07T06:31:30.760Z,13.93
2023-05-07T06:33:57.336Z,13.95
2023-05-07T06:36:23.853Z,13.93
2023-05-07T06:38:50.353Z,13.96
2023-05-07T06:41:16.817Z,13.97
2023-05-07T06:43:43.296Z,14.06
2023-05-07T06:46:09.830Z,14.13
2023-05-07T06:48:36.311Z,14.29
2023-05-07T06:51:02.818Z,14.41
2023-05-07T06:53:30.258Z,14.58
2023-05-07T06:55:56.769Z,14.84
2023-05-07T06:58:23.557Z,15.12
2023-05-07T07:00:50.043Z,15.25
2023-05-07T07:03:16.676Z,15.33
2023-05-07T07:05:43.248Z,15.34
2023-05-07T07:08:10.286Z,15.43
2023-05-07T07:10:36.770Z,15.49
2023-05-07T07:13:03.314Z,15.46
2023-05-07T07:15:29.786Z,15.38
2023-05-07T07:17:56.384Z,15.31
2023-05-07T07:20:22.904Z,15.20
2023-05-07T07:22:49.392Z,15.10
2023-05-07T07:25:16.021Z,15.13
2023-05-07T07:27:42.517Z,15.16
2023-05-07T07:30:09.472Z,15.15
2023-05-07T07:32:36.398Z,15.15
2023-05-07T07:35:03.263Z,15.28
2023-05-07T07:37:30.614Z,15.35
2023-05-07T07:39:57.164Z,15.42
2023-05-07T07:42:23.739Z,15.37
2023-05-07T07:44:50.227Z,15.45
2023-05-07T07:47:16.737Z,15.56
2023-05-07T07:49:43.351Z,15.68
2023-05-07T07:52:09.841Z,15.76
2023-05-07T07:54:36.335Z,15.95
2023-05-07T07:57:02.828Z,16.22
2023-05-07T07:59:29.305Z,16.38
2023-05-07T08:01:56.679Z,16.38
2023-05-07T08:04:23.378Z,16.50
2023-05-07T08:06:49.900Z,16.65
2023-05-07T08:09:16.364Z,16.71
2023-05-07T08:11:42.835Z,16.67
2023-05-07T08:14:09.341Z,17.17
2023-05-07T08:16:35.812Z,17.55
2023-05-07T08:19:02.315Z,17.87
2023-05-07T08:21:28.795Z,18.16
2023-05-07T08:23:55.358Z,18.39
2023-05-07T08:26:21.916Z,18.63
2023-05-07T08:28:48.366Z,18.78
2023-05-07T08:31:14.863Z,18.96
2023-05-07T08:33:41.432Z,19.15
2023-05-07T08:36:08.095Z,19.62
2023-05-07T08:38:34.590Z,19.78
2023-05-07T08:41:01.114Z,19.87
2023-05-07T08:43:27.925Z,19.95
2023-05-07T08:45:57.548Z,20.09
2023-05-07T08:48:26.302Z,20.25
2023-05-07T08:50:52.800Z,20.39
2023-05-07T08:53:19.280Z,20.61
2023-05-07T08:55:46.261Z,20.66
2023-05-07T08:58:12.782Z,20.70
2023-05-07T09:00:39.273Z,20.80
2023-05-07T09:03:05.832Z,20.94
2023-05-07T09:05:32.412Z,21.22
2023-05-07T09:08:03.183Z,21.42
2023-05-07T09:10:30.334Z,21.58
2023-05-07T09:12:57.029Z,21.66
2023-05-07T09:15:23.538Z,21.63
2023-05-07T09:17:50.081Z,21.66
2023-05-07T09:20:16.598Z,21.53
2023-05-07T09:22:43.671Z,21.57
2023-05-07T09:25:10.620Z,21.75
2023-05-07T09:27:37.643Z,21.95
2023-05-07T09:30:06.146Z,22.07
2023-05-07T09:32:35.773Z,22.11
2023-05-07T09:35:03.371Z,22.09
2023-05-07T09:37:31.479Z,22.15
2023-05-07T09:39:57.967Z,22.09
2023-05-07T09:42:25.732Z,21.94
2023-05-07T09:44:52.193Z,21.99
2023-05-07T09:47:20.006Z,22.06
2023-05-07T09:49:48.820Z,22.23
2023-05-07T09:52:15.376Z,22.56
2023-05-07T09:54:43.935Z,22.74
2023-05-07T09:57:13.270Z,23.04
2023-05-07T09:59:39.738Z,23.33
2023-05-07T10:02:07.198Z,23.55
2023-05-07T10:04:33.814Z,23.61
2023-05-07T10:07:00.339Z,23.70
2023-05-07T10:09:26.995Z,23.66
2023-05-07T10:11:53.872Z,23.60
2023-05-07T10:14:23.554Z,23.44
2023-05-07T10:16:50.137Z,23.48
2023-05-07T10:19:16.618Z,23.58
2023-05-07T10:21:46.071Z,23.51
2023-05-07T10:24:26.045Z,23.37
2023-05-07T10:26:53.232Z,23.37
2023-05-07T10:29:40.384Z,23.42
2023-05-07T10:32:12.901Z,24.19
2023-05-07T10:34:41.708Z,25.02
2023-05-07T10:37:08.177Z,26.07
2023-05-07T10:39:35.179Z,27.69
2023-05-07T10:42:11.476Z,28.23
2023-05-07T10:44:38.421Z,28.65
2023-05-07T10:47:10.201Z,27.55
2023-05-07T10:49:38.086Z,27.05
2023-05-07T10:52:17.822Z,28.13
2023-05-07T10:54:47.256Z,27.90
2023-05-07T10:57:31.960Z,26.38
2023-05-07T10:59:59.361Z,25.70
2023-05-07T11:03:01.117Z,24.93
2023-05-07T11:05:29.401Z,24.67
2023-05-07T11:07:56.740Z,24.25
2023-05-07T11:10:23.205Z,23.72
2023-05-07T11:12:50.611Z,23.30
2023-05-07T11:15:34.820Z,23.02
2023-05-07T11:18:01.343Z,22.88
2023-05-07T11:20:53.673Z,22.69
2023-05-07T11:23:38.748Z,22.31
2023-05-07T11:26:05.860Z,21.76
2023-05-07T11:28:32.635Z,21.31
2023-05-07T11:30:59.146Z,20.86
2023-05-07T11:33:26.561Z,20.46
2023-05-07T11:35:54.421Z,20.00
2023-05-07T11:38:21.060Z,19.57
2023-05-07T11:40:54.628Z,19.29
2023-05-07T11:43:21.207Z,19.37
2023-05-07T11:45:47.764Z,19.47
2023-05-07T11:48:14.538Z,19.79
2023-05-07T11:50:59.217Z,21.02
2023-05-07T11:53:26.061Z,24.31
2023-05-07T11:55:58.603Z,24.74
2023-05-07T11:58:25.511Z,25.58
2023-05-07T12:00:55.109Z,25.47
2023-05-07T12:03:22.131Z,25.87
2023-05-07T12:05:48.795Z,27.15
2023-05-07T12:08:18.770Z,29.44
2023-05-07T12:10:45.763Z,28.86
2023-05-07T12:13:19.001Z,27.20
2023-05-07T12:15:45.657Z,26.08
2023-05-07T12:18:12.715Z,25.10
2023-05-07T12:20:39.469Z,24.12
2023-05-07T12:23:06.168Z,23.20
2023-05-07T12:25:33.338Z,22.60
2023-05-07T12:28:01.701Z,22.06
2023-05-07T12:30:28.172Z,21.47
2023-05-07T12:32:55.251Z,20.88
2023-05-07T12:35:41.122Z,20.32
2023-05-07T12:38:18.310Z,19.85
2023-05-07T12:40:48.407Z,19.27
2023-05-07T12:43:27.632Z,18.55
2023-05-07T12:45:58.682Z,18.05
2023-05-07T12:48:27.848Z,17.66
2023-05-07T12:50:54.456Z,17.33
2023-05-07T12:53:22.069Z,17.22
2023-05-07T12:55:49.893Z,17.06
2023-05-07T12:58:17.706Z,16.93
2023-05-07T13:00:44.566Z,16.63
2023-05-07T13:03:11.897Z,16.23
2023-05-07T13:05:38.498Z,15.87
2023-05-07T13:08:05.156Z,15.45
2023-05-07T13:10:31.681Z,14.96
2023-05-07T13:12:58.214Z,14.70
2023-05-07T13:15:24.779Z,14.34
2023-05-07T13:17:51.570Z,13.97
2023-05-07T13:20:18.253Z,13.77
2023-05-07T13:22:44.736Z,13.38
2023-05-07T13:25:11.406Z,12.64
2023-05-07T13:27:38.151Z,12.07
2023-05-07T13:30:05.781Z,11.81
2023-05-07T13:32:32.608Z,11.82
2023-05-07T13:34:59.324Z,11.96
2023-05-07T13:37:26.021Z,12.11
2023-05-07T13:39:52.548Z,12.21
2023-05-07T13:42:19.002Z,12.09
2023-05-07T13:44:45.470Z,11.97
2023-05-07T13:47:12.040Z,11.91
2023-05-07T13:49:38.573Z,11.77
2023-05-07T13:52:05.296Z,11.75
2023-05-07T13:54:31.750Z,11.81
2023-05-07T13:56:58.208Z,11.88
2023-05-07T13:59:24.665Z,11.93
2023-05-07T14:01:51.159Z,11.95
2023-05-07T14:04:17.605Z,11.99
2023-05-07T14:06:44.072Z,11.89
2023-05-07T14:09:13.113Z,11.87
2023-05-07T14:11:39.925Z,11.81
2023-05-07T14:14:06.596Z,11.72
2023-05-07T14:16:33.132Z,11.69
2023-05-07T14:18:59.604Z,11.71
2023-05-07T14:21:26.249Z,11.64
2023-05-07T14:23:52.767Z,11.67
2023-05-07T14:26:19.986Z,11.77
2023-05-07T14:28:47.303Z,11.80
2023-05-07T14:31:14.006Z,11.85
2023-05-07T14:33:42.020Z,11.82
2023-05-07T14:36:08.845Z,11.94
2023-05-07T14:38:35.405Z,11.94
2023-05-07T14:41:02.057Z,12.08
2023-05-07T14:43:28.612Z,12.24
2023-05-07T14:45:55.160Z,12.39
2023-05-07T14:48:21.717Z,12.49
2023-05-07T14:50:49.204Z,12.62
2023-05-07T14:53:16.276Z,12.71
2023-05-07T14:55:42.873Z,12.71
2023-05-07T14:58:09.433Z,12.70
2023-05-07T15:00:35.969Z,12.74
2023-05-07T15:03:11.615Z,12.78
2023-05-07T15:05:38.531Z,12.84
2023-05-07T15:08:05.192Z,12.85
2023-05-07T15:10:31.652Z,12.90
2023-05-07T15:12:58.167Z,12.92
2023-05-07T15:15:24.743Z,12.98
2023-05-07T15:17:51.425Z,13.10
2023-05-07T15:20:18.528Z,13.19
2023-05-07T15:22:45.059Z,13.25
2023-05-07T15:25:12.702Z,13.19
2023-05-07T15:27:39.522Z,13.12
2023-05-07T15:30:06.774Z,13.15
2023-05-07T15:32:33.244Z,13.11
2023-05-07T15:34:59.739Z,13.05
2023-05-07T15:37:26.210Z,13.10
2023-05-07T15:39:52.700Z,13.15
2023-05-07T15:42:19.168Z,13.17
2023-05-07T15:44:45.725Z,13.12
2023-05-07T15:47:14.884Z,13.10
2023-05-07T15:49:42.128Z,12.98
2023-05-07T15:52:11.336Z,12.84
2023-05-07T15:54:40.851Z,12.77
2023-05-07T15:57:07.330Z,12.71
2023-05-07T15:59:34.159Z,12.69
2023-05-07T16:02:01.209Z,12.59
2023-05-07T16:04:28.165Z,12.51
2023-05-07T16:06:54.736Z,12.38
2023-05-07T16:09:21.462Z,12.26
2023-05-07T16:11:48.566Z,12.23
2023-05-07T16:14:15.036Z,12.20
2023-05-07T16:16:41.593Z,12.19
2023-05-07T16:19:08.070Z,12.19
2023-05-07T16:21:35.480Z,12.09
2023-05-07T16:24:02.360Z,11.91
2023-05-07T16:26:29.264Z,11.72
2023-05-07T16:28:55.842Z,11.53
2023-05-07T16:31:22.422Z,11.34
2023-05-07T16:33:48.896Z,11.19
2023-05-07T16:36:15.383Z,11.18
2023-05-07T16:38:41.864Z,11.15
2023-05-07T16:41:08.423Z,11.05
2023-05-07T16:43:34.874Z,11.01
2023-05-07T16:46:01.423Z,10.97
2023-05-07T16:48:27.945Z,10.87
2023-05-07T16:50:54.409Z,10.84
2023-05-07T16:53:20.951Z,10.78
2023-05-07T16:55:47.422Z,10.72
2023-05-07T16:58:15.312Z,10.72
2023-05-07T17:00:50.785Z,10.69
2023-05-07T17:03:18.279Z,10.72
2023-05-07T17:05:47.982Z,10.74
2023-05-07T17:08:14.673Z,10.74
2023-05-07T17:10:41.454Z,10.79
2023-05-07T17:13:08.024Z,10.84
2023-05-07T17:15:34.580Z,10.89
2023-05-07T17:18:01.095Z,10.94
2023-05-07T17:20:27.633Z,10.89
2023-05-07T17:22:54.109Z,10.84
2023-05-07T17:25:20.982Z,10.82
2023-05-07T17:27:47.468Z,10.81
2023-05-07T17:30:15.327Z,10.79
2023-05-07T17:32:42.464Z,10.73
2023-05-07T17:35:09.164Z,10.70
2023-05-07T17:37:35.692Z,10.61
2023-05-07T17:40:02.989Z,10.54
2023-05-07T17:42:29.593Z,10.53
2023-05-07T17:44:56.280Z,10.45
2023-05-07T17:47:22.832Z,10.34
2023-05-07T17:49:49.413Z,10.33
2023-05-07T17:52:15.909Z,10.31
2023-05-07T17:54:42.428Z,10.35
2023-05-07T17:57:08.908Z,10.33
2023-05-07T17:59:35.398Z,10.32
2023-05-07T18:02:01.937Z,10.29
2023-05-07T18:04:28.460Z,10.31
2023-05-07T18:06:54.958Z,10.28
2023-05-07T18:09:21.416Z,10.34
2023-05-07T18:11:47.890Z,10.39
2023-05-07T18:14:14.353Z,10.41
2023-05-07T18:16:40.923Z,10.40
2023-05-07T18:19:07.630Z,10.31
2023-05-07T18:21:34.093Z,10.33
2023-05-07T18:24:00.659Z,10.39
2023-05-07T18:26:27.324Z,10.40
2023-05-07T18:28:54.083Z,10.40
2023-05-07T18:31:21.352Z,10.36
2023-05-07T18:33:47.854Z,10.35
2023-05-07T18:36:14.356Z,10.36
2023-05-07T18:38:42.564Z,10.37
2023-05-07T18:41:09.123Z,10.36
2023-05-07T18:43:35.709Z,10.29
2023-05-07T18:46:02.261Z,10.23
2023-05-07T18:48:28.790Z,10.20
2023-05-07T18:50:55.469Z,10.22
2023-05-07T18:53:21.950Z,10.24
2023-05-07T18:55:52.223Z,10.26
2023-05-07T18:58:19.930Z,10.27
2023-05-07T19:00:50.079Z,10.26
2023-05-07T19:03:17.103Z,10.29
2023-05-07T19:05:44.087Z,10.29
2023-05-07T19:08:10.632Z,10.33
2023-05-07T19:10:37.222Z,10.34
2023-05-07T19:13:03.731Z,10.38
2023-05-07T19:15:30.251Z,10.44
2023-05-07T19:17:56.846Z,10.43
2023-05-07T19:20:23.393Z,10.39
2023-05-07T19:22:49.843Z,10.35
2023-05-07T19:25:18.095Z,10.38
2023-05-07T19:27:44.548Z,10.33
2023-05-07T19:30:11.491Z,10.31
2023-05-07T19:32:38.412Z,10.33
2023-05-07T19:35:05.267Z,10.32
2023-05-07T19:37:31.756Z,10.28
2023-05-07T19:39:58.225Z,10.19
2023-05-07T19:42:24.772Z,10.19
2023-05-07T19:44:51.275Z,10.22
2023-05-07T19:47:17.756Z,10.24
2023-05-07T19:49:44.297Z,10.28
2023-05-07T19:52:10.915Z,10.33
2023-05-07T19:54:37.427Z,10.35
2023-05-07T19:57:03.888Z,10.35
2023-05-07T19:59:30.537Z,10.31
2023-05-07T20:01:57.178Z,10.34
2023-05-07T20:04:29.088Z,10.32
2023-05-07T20:06:56.171Z,10.34
2023-05-07T20:09:22.628Z,10.34
2023-05-07T20:11:49.115Z,10.32
2023-05-07T20:14:15.658Z,10.33
2023-05-07T20:16:42.225Z,10.36
2023-05-07T20:19:08.820Z,10.36
2023-05-07T20:21:35.368Z,10.32
2023-05-07T20:24:02.060Z,10.34
2023-05-07T20:26:28.541Z,10.35
2023-05-07T20:28:55.041Z,10.40
2023-05-07T20:31:21.585Z,10.43
2023-05-07T20:33:48.067Z,10.36
2023-05-07T20:36:14.578Z,10.32
2023-05-07T20:38:41.147Z,10.21
2023-05-07T20:41:08.400Z,10.15
2023-05-07T20:43:35.599Z,10.13
2023-05-07T20:46:02.620Z,10.13
2023-05-07T20:48:30.748Z,10.07
2023-05-07T20:50:57.803Z,10.06
2023-05-07T20:53:24.349Z,10.11
2023-05-07T20:55:50.844Z,10.15
2023-05-07T20:58:18.104Z,10.18
2023-05-07T21:00:44.632Z,10.15
2023-05-07T21:03:11.223Z,10.11
2023-05-07T21:05:37.729Z,10.10
2023-05-07T21:08:04.925Z,10.12
2023-05-07T21:10:31.398Z,10.14
2023-05-07T21:12:57.897Z,10.16
2023-05-07T21:15:24.395Z,10.16
2023-05-07T21:17:50.913Z,10.18
2023-05-07T21:20:17.488Z,10.18
2023-05-07T21:22:43.946Z,10.15
2023-05-07T21:25:12.572Z,10.16
2023-05-07T21:27:39.830Z,10.18
2023-05-07T21:30:06.967Z,10.22
2023-05-07T21:32:33.470Z,10.22
2023-05-07T21:35:00.899Z,10.30
2023-05-07T21:37:27.353Z,10.31
2023-05-07T21:39:53.809Z,10.34
2023-05-07T21:42:21.828Z,10.34
2023-05-07T21:44:49.565Z,10.33
2023-05-07T21:47:16.040Z,10.29
2023-05-07T21:49:42.678Z,10.29
2023-05-07T21:52:12.779Z,10.31
2023-05-07T21:54:39.366Z,10.33
2023-05-07T21:57:05.885Z,10.29
2023-05-07T21:59:34.099Z,10.33
2023-05-07T22:02:01.072Z,10.31
2023-05-07T22:04:27.672Z,10.31
2023-05-07T22:06:54.163Z,10.31
2023-05-07T22:09:20.934Z,10.33
2023-05-07T22:11:47.435Z,10.31
2023-05-07T22:14:13.967Z,10.26
2023-05-07T22:16:40.922Z,10.27
2023-05-07T22:19:07.450Z,10.20
2023-05-07T22:21:33.934Z,10.15
2023-05-07T22:24:00.570Z,10.06
2023-05-07T22:26:27.339Z,10.00
2023-05-07T22:28:53.815Z,9.96
2023-05-07T22:31:20.292Z,9.94
2023-05-07T22:33:46.774Z,9.97
2023-05-07T22:36:13.298Z,9.98
2023-05-07T22:38:39.822Z,9.96
2023-05-07T22:41:06.276Z,9.96
2023-05-07T22:43:32.777Z,9.94
2023-05-07T22:46:00.993Z,9.88
2023-05-07T22:48:28.779Z,9.85
2023-05-07T22:50:55.379Z,9.83
2023-05-07T22:53:21.888Z,9.85
2023-05-07T22:55:48.352Z,9.87
2023-05-07T22:58:14.854Z,9.88
2023-05-07T23:00:41.330Z,9.91
2023-05-07T23:03:08.041Z,9.91
2023-05-07T23:05:34.782Z,9.91
2023-05-07T23:08:01.253Z,9.92
2023-05-07T23:10:27.750Z,9.93
2023-05-07T23:12:54.572Z,9.94
2023-05-07T23:15:21.278Z,9.97
2023-05-07T23:17:47.886Z,10.02
2023-05-07T23:20:14.655Z,10.00
2023-05-07T23:22:41.835Z,9.99
2023-05-07T23:25:11.445Z,10.00
2023-05-07T23:27:37.958Z,9.98
2023-05-07T23:30:04.879Z,9.99
2023-05-07T23:32:31.899Z,10.04
2023-05-07T23:34:58.441Z,10.04
2023-05-07T23:37:25.011Z,10.05
2023-05-07T23:39:54.689Z,10.03
2023-05-07T23:42:21.227Z,10.02
2023-05-07T23:44:47.709Z,9.95
2023-05-07T23:47:14.231Z,9.97
2023-05-07T23:49:40.692Z,9.94
2023-05-07T23:52:07.205Z,9.91
2023-05-07T23:54:33.650Z,9.93
2023-05-07T23:57:00.148Z,9.95
2023-05-07T23:59:26.620Z,9.94
